createdAt,value
2019-01-25T00:01:52.869Z,73.85
2019-01-25T00:04:22.849Z,72.65
2019-01-25T00:06:52.815Z,80.15
2019-01-25T00:09:22.771Z,79.22
2019-01-25T00:11:52.822Z,73.15
2019-01-25T00:14:23.315Z,76.15
2019-01-25T00:16:56.388Z,77.87
2019-01-25T00:19:26.652Z,74.15
2019-01-25T00:21:57.486Z,77.58
2019-01-25T00:24:27.704Z,76.55
2019-01-25T00:26:57.785Z,73.45
2019-01-25T00:29:28.007Z,75.95
2019-01-25T00:31:58.051Z,74.70
2019-01-25T00:34:28.441Z,77.25
2019-01-25T00:36:58.571Z,72.08
2019-01-25T00:39:28.519Z,73.35
2019-01-25T00:41:59.353Z,77.85
2019-01-25T00:44:30.601Z,75.22
2019-01-25T00:47:01.285Z,79.67
2019-01-25T00:49:31.429Z,84.20
2019-01-25T00:52:03.628Z,82.02
2019-01-25T00:54:33.852Z,75.25
2019-01-25T00:57:04.004Z,79.05
2019-01-25T00:59:36.610Z,76.53
2019-01-25T01:02:06.630Z,72.50
2019-01-25T01:04:36.875Z,77.70
2019-01-25T01:07:06.883Z,74.27
2019-01-25T01:09:36.966Z,75.00
2019-01-25T01:12:06.934Z,73.47
2019-01-25T01:14:39.795Z,78.02
2019-01-25T01:17:09.894Z,73.52
2019-01-25T01:19:39.836Z,81.65
2019-01-25T01:22:09.875Z,74.67
2019-01-25T01:24:39.844Z,75.15
2019-01-25T01:27:09.808Z,73.17
2019-01-25T01:29:39.750Z,70.42
2019-01-25T01:32:09.716Z,72.58
2019-01-25T01:34:39.681Z,74.58
2019-01-25T01:37:09.619Z,69.77
2019-01-25T01:39:41.660Z,77.87
2019-01-25T01:42:11.541Z,71.25
2019-01-25T01:44:42.782Z,73.83
2019-01-25T01:47:12.759Z,76.00
2019-01-25T01:49:42.852Z,77.70
2019-01-25T01:52:12.801Z,76.05
2019-01-25T01:54:42.956Z,77.17
2019-01-25T01:57:13.386Z,78.97
2019-01-25T01:59:43.408Z,75.08
2019-01-25T02:02:13.710Z,76.62
2019-01-25T02:04:43.934Z,75.70
2019-01-25T02:07:14.064Z,73.37
2019-01-25T02:09:43.992Z,79.12
2019-01-25T02:12:16.664Z,74.80
2019-01-25T02:14:49.779Z,81.55
2019-01-25T02:17:19.916Z,91.12
2019-01-25T02:19:51.306Z,99.50
2019-01-25T02:22:21.624Z,102.42
2019-01-25T02:24:51.540Z,111.57
2019-01-25T02:27:21.649Z,111.32
2019-01-25T02:29:53.095Z,116.42
2019-01-25T02:32:23.063Z,113.08
2019-01-25T02:34:53.110Z,116.22
2019-01-25T02:37:22.928Z,107.97
2019-01-25T02:39:52.885Z,114.35
2019-01-25T02:42:22.878Z,121.97
2019-01-25T02:44:53.220Z,111.15
2019-01-25T02:47:23.208Z,119.60
2019-01-25T02:49:53.499Z,124.60
2019-01-25T02:52:23.340Z,116.88
2019-01-25T02:54:53.739Z,115.40
2019-01-25T02:57:25.371Z,119.87
2019-01-25T02:59:55.311Z,122.13
2019-01-25T03:02:25.218Z,126.70
2019-01-25T03:04:55.286Z,129.85
2019-01-25T03:07:25.282Z,118.87
2019-01-25T03:09:56.009Z,125.45
2019-01-25T03:12:25.950Z,135.82
2019-01-25T03:15:01.565Z,129.42
2019-01-25T03:17:31.651Z,123.97
2019-01-25T03:20:02.071Z,112.70
2019-01-25T03:22:32.082Z,126.07
2019-01-25T03:25:02.060Z,127.50
2019-01-25T03:27:32.035Z,125.38
2019-01-25T03:30:01.991Z,131.22
2019-01-25T03:32:32.021Z,118.90
2019-01-25T03:35:01.883Z,132.80
2019-01-25T03:37:31.903Z,141.43
2019-01-25T03:40:01.793Z,128.60
2019-01-25T03:42:31.831Z,128.97
2019-01-25T03:45:02.643Z,124.53
2019-01-25T03:47:35.594Z,132.00
2019-01-25T03:50:07.179Z,133.47
2019-01-25T03:52:37.119Z,127.92
2019-01-25T03:55:08.627Z,129.70
2019-01-25T03:57:38.541Z,128.70
2019-01-25T04:00:24.198Z,130.60
2019-01-25T04:02:57.711Z,135.52
2019-01-25T04:05:28.881Z,129.55
2019-01-25T04:07:58.821Z,121.42
2019-01-25T04:10:29.253Z,123.15
2019-01-25T04:13:00.883Z,139.77
2019-01-25T04:15:32.870Z,129.60
2019-01-25T04:18:02.811Z,138.00
2019-01-25T04:20:32.838Z,128.35
2019-01-25T04:23:07.863Z,124.78
2019-01-25T04:25:40.825Z,122.13
2019-01-25T04:28:10.767Z,128.12
2019-01-25T04:30:40.815Z,128.85
2019-01-25T04:33:10.773Z,131.18
2019-01-25T04:35:40.833Z,129.00
2019-01-25T04:38:13.401Z,126.85
2019-01-25T04:40:47.036Z,118.55
2019-01-25T04:43:18.410Z,133.63
2019-01-25T04:45:49.804Z,136.92
2019-01-25T04:48:19.981Z,128.25
2019-01-25T04:50:50.034Z,139.65
2019-01-25T04:53:19.984Z,132.07
2019-01-25T04:55:50.062Z,142.35
2019-01-25T04:58:20.391Z,136.55
2019-01-25T05:00:52.714Z,136.95
2019-01-25T05:03:22.761Z,121.67
2019-01-25T05:05:55.352Z,122.30
2019-01-25T05:08:25.357Z,128.18
2019-01-25T05:10:55.485Z,121.75
2019-01-25T05:13:25.519Z,128.50
2019-01-25T05:15:55.577Z,130.25
2019-01-25T05:18:25.633Z,129.80
2019-01-25T05:20:55.898Z,131.30
2019-01-25T05:23:28.915Z,148.43
2019-01-25T05:26:01.600Z,130.45
2019-01-25T05:28:31.663Z,135.45
2019-01-25T05:31:09.950Z,141.43
2019-01-25T05:33:40.170Z,129.78
2019-01-25T05:36:10.116Z,135.97
2019-01-25T05:38:45.967Z,137.07
2019-01-25T05:41:15.931Z,137.72
2019-01-25T05:43:48.587Z,133.75
2019-01-25T05:46:18.766Z,142.80
2019-01-25T05:48:49.234Z,138.30
2019-01-25T05:51:19.279Z,140.62
2019-01-25T05:53:53.437Z,139.70
2019-01-25T05:56:23.950Z,139.00
2019-01-25T05:58:56.878Z,135.25
2019-01-25T06:01:26.884Z,146.40
2019-01-25T06:03:56.909Z,134.97
2019-01-25T06:06:26.871Z,146.05
2019-01-25T06:08:56.786Z,145.38
2019-01-25T06:11:27.602Z,137.03
2019-01-25T06:13:58.015Z,143.28
2019-01-25T06:16:29.752Z,134.55
2019-01-25T06:18:59.872Z,137.30
2019-01-25T06:21:29.735Z,144.97
2019-01-25T06:23:59.751Z,147.62
2019-01-25T06:26:29.853Z,149.15
2019-01-25T06:28:59.761Z,150.22
2019-01-25T06:31:29.796Z,137.45
2019-01-25T06:33:59.852Z,148.55
2019-01-25T06:36:29.816Z,140.00
2019-01-25T06:38:59.915Z,133.65
2019-01-25T06:41:30.038Z,139.35
2019-01-25T06:44:00.002Z,148.13
2019-01-25T06:46:30.023Z,145.38
2019-01-25T06:49:00.013Z,152.32
2019-01-25T06:51:30.028Z,139.82
2019-01-25T06:53:59.910Z,137.55
2019-01-25T06:56:29.898Z,150.68
2019-01-25T06:59:11.919Z,144.87
2019-01-25T07:02:07.401Z,153.93
2019-01-25T07:04:37.304Z,147.75
2019-01-25T07:07:11.348Z,150.82
2019-01-25T07:09:41.550Z,148.30
2019-01-25T07:12:11.883Z,141.88
2019-01-25T07:14:41.908Z,142.77
2019-01-25T07:17:12.226Z,153.60
2019-01-25T07:19:44.749Z,141.15
2019-01-25T07:22:14.767Z,147.90
2019-01-25T07:24:46.829Z,141.15
2019-01-25T07:27:16.958Z,139.35
2019-01-25T07:29:49.325Z,147.57
2019-01-25T07:32:20.404Z,144.45
2019-01-25T07:34:50.528Z,142.68
2019-01-25T07:37:20.587Z,150.50
2019-01-25T07:39:50.656Z,147.45
2019-01-25T07:42:20.951Z,147.98
2019-01-25T07:44:51.391Z,152.68
2019-01-25T07:47:21.737Z,147.32
2019-01-25T07:49:51.977Z,151.63
2019-01-25T07:52:21.937Z,147.65
2019-01-25T07:54:51.976Z,139.75
2019-01-25T07:57:22.246Z,146.85
2019-01-25T07:59:53.640Z,154.07
2019-01-25T08:02:23.722Z,156.25
2019-01-25T08:04:53.729Z,139.82
2019-01-25T08:07:23.775Z,153.90
2019-01-25T08:09:56.331Z,151.10
2019-01-25T08:12:26.366Z,138.68
2019-01-25T08:14:56.401Z,146.95
2019-01-25T08:17:26.477Z,140.05
2019-01-25T08:19:56.749Z,150.18
2019-01-25T08:22:26.960Z,146.95
2019-01-25T08:24:57.023Z,151.97
2019-01-25T08:27:27.012Z,137.97
2019-01-25T08:29:57.125Z,142.40
2019-01-25T08:32:27.185Z,147.62
2019-01-25T08:34:57.256Z,143.52
2019-01-25T08:37:27.373Z,139.60
2019-01-25T08:39:59.947Z,131.40
2019-01-25T08:42:30.232Z,133.10
2019-01-25T08:45:00.671Z,139.47
2019-01-25T08:47:31.535Z,137.12
2019-01-25T08:50:01.972Z,135.72
2019-01-25T08:52:33.571Z,126.05
2019-01-25T08:55:03.794Z,141.97
2019-01-25T08:57:33.965Z,128.65
2019-01-25T09:00:08.767Z,135.85
2019-01-25T09:02:39.995Z,124.78
2019-01-25T09:05:10.850Z,119.70
2019-01-25T09:07:41.336Z,130.57
2019-01-25T09:10:13.763Z,126.35
2019-01-25T09:12:46.595Z,122.92
2019-01-25T09:15:19.261Z,124.62
2019-01-25T09:17:51.021Z,121.77
2019-01-25T09:20:21.555Z,115.70
2019-01-25T09:23:04.218Z,118.75
2019-01-25T09:25:35.403Z,121.75
2019-01-25T09:28:05.761Z,112.28
2019-01-25T09:30:35.884Z,102.55
2019-01-25T09:33:08.191Z,106.52
2019-01-25T09:35:38.325Z,108.37
2019-01-25T09:38:10.885Z,90.07
2019-01-25T09:40:41.055Z,86.97
2019-01-25T09:43:13.376Z,79.62
2019-01-25T09:48:39.070Z,74.00
2019-01-25T09:51:12.335Z,74.75
2019-01-25T09:53:48.181Z,83.82
2019-01-25T09:56:19.797Z,69.58
2019-01-25T09:58:50.423Z,70.52
2019-01-25T10:01:20.994Z,85.57
2019-01-25T10:03:51.029Z,74.97
2019-01-25T10:06:20.989Z,68.12
2019-01-25T10:08:50.916Z,72.27
2019-01-25T10:11:22.502Z,68.45
2019-01-25T10:13:52.663Z,63.78
2019-01-25T10:16:23.781Z,69.25
2019-01-25T10:18:54.338Z,61.77
2019-01-25T10:21:24.309Z,60.48
2019-01-25T10:23:54.713Z,66.28
2019-01-25T10:26:44.085Z,59.00
2019-01-25T10:29:15.318Z,55.90
2019-01-25T10:31:45.532Z,58.17
2019-01-25T10:34:16.219Z,61.95
2019-01-25T10:36:46.644Z,61.10
2019-01-25T10:39:16.955Z,62.10
2019-01-25T10:44:44.386Z,53.70
2019-01-25T10:47:14.630Z,61.05
2019-01-25T10:49:44.646Z,54.65
2019-01-25T10:52:15.520Z,55.55
2019-01-25T10:54:45.652Z,51.70
2019-01-25T10:57:16.667Z,57.03
2019-01-25T10:59:46.628Z,52.13
2019-01-25T11:02:16.772Z,50.40
2019-01-25T11:04:50.916Z,53.75
2019-01-25T11:07:20.992Z,61.53
2019-01-25T11:10:00.892Z,58.28
2019-01-25T11:12:31.176Z,58.10
2019-01-25T11:15:01.500Z,59.42
2019-01-25T11:17:36.410Z,55.20
2019-01-25T11:20:03.246Z,59.67
2019-01-25T11:25:35.348Z,49.20
2019-01-25T11:28:06.429Z,59.08
2019-01-25T11:30:37.492Z,61.60
2019-01-25T11:33:07.465Z,54.67
2019-01-25T11:35:38.863Z,55.23
2019-01-25T11:38:08.834Z,51.83
2019-01-25T11:40:41.098Z,62.03
2019-01-25T11:43:11.068Z,55.83
2019-01-25T11:45:41.521Z,53.63
2019-01-25T11:48:15.582Z,66.40
2019-01-25T11:50:45.729Z,60.08
2019-01-25T11:53:15.769Z,61.37
2019-01-25T11:55:45.716Z,69.20
2019-01-25T11:58:15.679Z,63.30
2019-01-25T12:00:46.593Z,62.17
2019-01-25T12:03:16.561Z,65.20
2019-01-25T12:05:46.503Z,70.03
2019-01-25T12:08:16.538Z,67.27
2019-01-25T12:10:46.533Z,72.42
2019-01-25T12:13:16.960Z,72.67
2019-01-25T12:15:46.910Z,71.05
2019-01-25T12:18:16.826Z,63.73
2019-01-25T12:20:46.802Z,70.32
2019-01-25T12:23:16.759Z,69.77
2019-01-25T12:25:46.708Z,68.00
2019-01-25T12:28:16.736Z,71.75
2019-01-25T12:30:46.772Z,63.45
2019-01-25T12:33:16.704Z,72.12
2019-01-25T12:35:46.765Z,64.07
2019-01-25T12:38:16.797Z,71.50
2019-01-25T12:40:46.802Z,71.10
2019-01-25T12:43:23.696Z,64.45
2019-01-25T12:45:50.338Z,68.30
2019-01-25T12:48:20.575Z,66.25
2019-01-25T12:51:01.476Z,75.85
2019-01-25T12:53:32.305Z,60.90
2019-01-25T12:56:04.057Z,58.68
2019-01-25T12:58:35.831Z,60.98
2019-01-25T13:01:06.791Z,63.68
2019-01-25T13:03:36.797Z,64.03
2019-01-25T13:06:07.013Z,67.30
2019-01-25T13:08:37.049Z,66.40
2019-01-25T13:11:10.011Z,68.25
2019-01-25T13:13:40.053Z,59.50
2019-01-25T13:16:11.054Z,55.83
2019-01-25T13:18:41.253Z,59.15
2019-01-25T13:21:11.470Z,57.58
2019-01-25T13:23:42.003Z,58.15
2019-01-25T13:26:13.930Z,62.23
2019-01-25T13:28:44.138Z,56.92
2019-01-25T13:31:14.782Z,54.98
2019-01-25T13:33:45.870Z,48.08
2019-01-25T13:36:17.937Z,46.48
2019-01-25T13:38:48.107Z,54.40
2019-01-25T13:41:18.525Z,47.23
2019-01-25T13:43:48.858Z,48.35
2019-01-25T13:46:19.006Z,46.10
2019-01-25T13:48:50.529Z,46.10
2019-01-25T13:51:20.833Z,51.75
2019-01-25T13:53:51.001Z,48.20
2019-01-25T13:56:21.428Z,45.78
2019-01-25T13:58:51.392Z,49.90
2019-01-25T14:01:21.864Z,49.35
2019-01-25T14:03:53.192Z,46.73
2019-01-25T14:06:23.994Z,47.20
2019-01-25T14:08:54.026Z,51.10
2019-01-25T14:11:24.216Z,51.50
2019-01-25T14:13:54.406Z,48.98
2019-01-25T14:16:24.512Z,51.35
2019-01-25T14:18:54.791Z,44.85
2019-01-25T14:21:25.040Z,51.70
2019-01-25T14:23:58.362Z,49.13
2019-01-25T14:26:28.686Z,56.42
2019-01-25T14:28:58.832Z,53.55
2019-01-25T14:31:29.074Z,52.15
2019-01-25T14:33:59.363Z,56.63
2019-01-25T14:36:29.390Z,49.08
2019-01-25T14:38:59.317Z,49.50
2019-01-25T14:41:32.078Z,52.00
2019-01-25T14:44:02.197Z,52.10
2019-01-25T14:46:32.328Z,55.73
2019-01-25T14:49:02.390Z,53.17
2019-01-25T14:51:32.524Z,62.73
2019-01-25T14:54:02.795Z,52.45
2019-01-25T14:56:33.272Z,56.15
2019-01-25T14:59:04.204Z,56.23
2019-01-25T15:01:35.399Z,55.67
2019-01-25T15:04:08.194Z,52.38
2019-01-25T15:06:38.609Z,53.48
2019-01-25T15:09:09.940Z,52.33
2019-01-25T15:11:40.010Z,61.63
2019-01-25T15:14:10.325Z,56.98
2019-01-25T15:16:41.157Z,56.50
2019-01-25T15:19:12.433Z,52.38
2019-01-25T15:21:42.680Z,59.73
2019-01-25T15:24:12.625Z,64.40
2019-01-25T15:26:42.708Z,52.60
2019-01-25T15:29:15.960Z,53.73
2019-01-25T15:31:45.963Z,48.48
2019-01-25T15:34:16.043Z,58.85
2019-01-25T15:36:50.256Z,58.35
2019-01-25T15:39:20.315Z,56.23
2019-01-25T15:41:50.443Z,54.60
2019-01-25T15:44:20.975Z,53.95
2019-01-25T15:46:57.432Z,51.15
2019-01-25T15:49:29.357Z,56.95
2019-01-25T15:51:59.388Z,53.52
2019-01-25T15:54:29.510Z,52.50
2019-01-25T15:56:59.318Z,50.23
2019-01-25T15:59:29.564Z,56.40
2019-01-25T16:02:00.689Z,56.53
2019-01-25T16:04:35.082Z,54.03
2019-01-25T16:07:04.205Z,54.75
2019-01-25T16:09:34.237Z,60.28
2019-01-25T16:12:09.373Z,58.63
2019-01-25T16:14:39.429Z,61.88
2019-01-25T16:17:10.316Z,58.70
2019-01-25T16:19:42.666Z,61.37
2019-01-25T16:22:13.379Z,55.03
2019-01-25T16:24:44.390Z,59.23
2019-01-25T16:27:14.810Z,65.35
2019-01-25T16:29:45.669Z,58.33
2019-01-25T16:32:19.251Z,62.88
2019-01-25T16:34:49.656Z,58.10
2019-01-25T16:37:20.064Z,68.40
2019-01-25T16:39:50.360Z,60.88
2019-01-25T16:42:20.993Z,58.85
2019-01-25T16:44:51.643Z,59.73
2019-01-25T16:47:22.255Z,53.75
2019-01-25T16:49:55.823Z,53.90
2019-01-25T16:52:26.247Z,58.63
2019-01-25T16:55:00.258Z,58.33
2019-01-25T16:57:30.833Z,80.57
2019-01-25T17:00:01.515Z,58.90
2019-01-25T17:02:40.942Z,67.78
2019-01-25T17:05:11.837Z,60.60
2019-01-25T17:07:42.615Z,63.15
2019-01-25T17:10:13.817Z,61.35
2019-01-25T17:12:47.660Z,54.67
2019-01-25T17:15:26.686Z,59.80
2019-01-25T17:17:57.632Z,61.23
2019-01-25T17:20:31.962Z,63.87
2019-01-25T17:23:02.001Z,56.10
2019-01-25T17:25:32.070Z,68.97
2019-01-25T17:28:03.225Z,59.35
2019-01-25T17:30:35.199Z,59.13
2019-01-25T17:33:11.297Z,61.80
2019-01-25T17:35:51.378Z,63.52
2019-01-25T17:38:23.374Z,60.90
2019-01-25T17:40:53.622Z,60.17
2019-01-25T17:43:24.060Z,65.62
2019-01-25T17:45:54.467Z,65.37
2019-01-25T17:48:29.097Z,67.27
2019-01-25T17:50:59.536Z,64.27
2019-01-25T17:53:30.012Z,61.95
2019-01-25T17:56:00.608Z,64.37
2019-01-25T17:58:31.773Z,63.10
2019-01-25T18:01:02.128Z,68.10
2019-01-25T18:03:48.628Z,62.35
2019-01-25T18:06:25.739Z,68.78
2019-01-25T18:08:56.298Z,68.25
2019-01-25T18:11:29.132Z,65.97
2019-01-25T18:13:59.500Z,69.53
2019-01-25T18:16:29.664Z,75.97
2019-01-25T18:19:01.710Z,73.80
2019-01-25T18:21:34.155Z,63.73
2019-01-25T18:24:04.674Z,69.07
2019-01-25T18:26:34.772Z,67.00
2019-01-25T18:29:32.808Z,75.45
2019-01-25T18:32:04.666Z,66.75
2019-01-25T18:34:34.982Z,66.65
2019-01-25T18:37:05.268Z,69.77
2019-01-25T18:39:36.704Z,65.80
2019-01-25T18:42:08.772Z,70.08
2019-01-25T18:44:39.198Z,62.80
2019-01-25T18:47:09.695Z,66.72
2019-01-25T18:49:42.144Z,66.07
2019-01-25T18:52:14.646Z,66.02
2019-01-25T18:54:45.110Z,65.22
2019-01-25T18:57:17.271Z,62.78
2019-01-25T18:59:47.289Z,58.17
2019-01-25T19:02:17.391Z,65.85
2019-01-25T19:04:47.835Z,73.80
2019-01-25T19:07:18.073Z,71.05
2019-01-25T19:09:48.434Z,69.15
2019-01-25T19:12:20.520Z,68.75
2019-01-25T19:14:52.362Z,67.55
2019-01-25T19:17:22.672Z,63.98
2019-01-25T19:19:53.217Z,63.35
2019-01-25T19:22:28.062Z,68.92
2019-01-25T19:25:01.446Z,67.35
2019-01-25T19:27:31.816Z,67.50
2019-01-25T19:30:02.240Z,58.80
2019-01-25T19:33:23.940Z,62.03
2019-01-25T19:35:56.979Z,61.37
2019-01-25T19:38:27.479Z,67.08
2019-01-25T19:40:59.826Z,63.25
2019-01-25T19:43:30.579Z,66.87
2019-01-25T19:46:00.915Z,64.72
2019-01-25T19:48:32.719Z,55.90
2019-01-25T19:51:08.821Z,56.75
2019-01-25T19:53:39.738Z,59.23
2019-01-25T19:56:16.153Z,59.10
2019-01-25T19:58:48.513Z,58.50
2019-01-25T20:01:20.815Z,52.98
2019-01-25T20:03:51.230Z,53.92
2019-01-25T20:06:22.696Z,56.65
2019-01-25T20:08:57.554Z,60.23
2019-01-25T20:11:27.589Z,63.45
2019-01-25T20:14:03.907Z,54.70
2019-01-25T20:16:42.910Z,57.55
2019-01-25T20:19:22.406Z,56.15
2019-01-25T20:22:01.349Z,52.40
2019-01-25T20:24:49.690Z,58.45
2019-01-25T20:27:20.007Z,54.42
2019-01-25T20:30:01.463Z,50.35
2019-01-25T20:32:30.653Z,51.60
2019-01-25T20:35:02.639Z,50.00
2019-01-25T20:37:33.792Z,56.58
2019-01-25T20:40:31.781Z,46.50
2019-01-25T20:43:09.870Z,56.75
2019-01-25T20:45:40.470Z,56.15
2019-01-25T20:48:10.871Z,54.55
2019-01-25T20:50:43.487Z,59.10
2019-01-25T20:53:14.918Z,57.75
2019-01-25T20:56:04.507Z,52.00
2019-01-25T20:58:36.899Z,53.28
2019-01-25T21:01:07.068Z,64.30
2019-01-25T21:03:37.207Z,64.62
2019-01-25T21:06:08.027Z,62.65
2019-01-25T21:08:59.161Z,55.48
2019-01-25T21:11:34.043Z,59.42
2019-01-25T21:14:03.928Z,59.18
2019-01-25T21:16:41.074Z,62.60
2019-01-25T21:19:11.753Z,59.25
2019-01-25T21:21:48.325Z,63.15
2019-01-25T21:24:24.171Z,57.35
2019-01-25T21:27:03.967Z,57.80
2019-01-25T21:29:36.665Z,56.90
2019-01-25T21:32:10.955Z,60.65
2019-01-25T21:34:45.886Z,63.33
2019-01-25T21:37:18.519Z,63.68
2019-01-25T21:40:08.455Z,59.18
2019-01-25T21:42:34.987Z,61.90
2019-01-25T21:45:06.010Z,58.48
2019-01-25T21:47:36.790Z,55.25
2019-01-25T21:50:08.674Z,63.17
2019-01-25T21:52:43.733Z,62.15
2019-01-25T21:55:16.106Z,61.65
2019-01-25T21:57:52.120Z,64.25
2019-01-25T22:00:26.148Z,57.48
2019-01-25T22:02:56.559Z,62.50
2019-01-25T22:05:36.281Z,59.90
2019-01-25T22:08:07.932Z,63.02
2019-01-25T22:10:44.104Z,63.48
2019-01-25T22:13:17.016Z,66.12
2019-01-25T22:15:50.989Z,60.35
2019-01-25T22:18:24.747Z,59.53
2019-01-25T22:20:54.875Z,62.60
2019-01-25T22:23:24.947Z,51.95
2019-01-25T22:25:56.637Z,54.27
2019-01-25T22:28:26.674Z,55.17
2019-01-25T22:30:58.866Z,42.03
2019-01-25T22:33:29.119Z,44.83
2019-01-25T22:36:03.101Z,39.67
2019-01-25T22:38:33.350Z,37.38
2019-01-25T22:41:06.643Z,39.85
2019-01-25T22:43:36.681Z,37.25
2019-01-25T22:46:06.703Z,41.10
2019-01-25T22:48:36.986Z,35.75
2019-01-25T22:51:07.269Z,36.53
2019-01-25T22:53:37.396Z,31.95
2019-01-25T22:56:07.510Z,35.05
2019-01-25T22:58:37.594Z,29.30
2019-01-25T23:01:21.103Z,31.57
2019-01-25T23:04:16.747Z,37.48
2019-01-25T23:06:53.728Z,32.63
2019-01-25T23:09:50.267Z,36.00
2019-01-25T23:12:25.537Z,32.03
2019-01-25T23:14:55.566Z,33.10
2019-01-25T23:17:25.798Z,31.10
2019-01-25T23:19:55.945Z,28.42
2019-01-25T23:22:26.440Z,41.88
2019-01-25T23:24:56.817Z,29.98
2019-01-25T23:27:27.132Z,32.23
2019-01-25T23:29:57.277Z,29.92
2019-01-25T23:32:29.357Z,29.90
2019-01-25T23:34:59.453Z,31.23
2019-01-25T23:37:29.753Z,33.25
2019-01-25T23:39:59.947Z,25.10
2019-01-25T23:45:59.366Z,28.95
2019-01-25T23:48:50.943Z,21.65
2019-01-25T23:51:23.043Z,25.17
2019-01-25T23:53:52.759Z,19.73
2019-01-25T23:56:22.690Z,25.77
2019-01-25T23:58:52.628Z,23.25
